createdAt,value
2023-01-19T00:00:20.155Z,98940.53
2023-01-19T00:01:22.275Z,98932.00
2023-01-19T00:02:24.341Z,98930.28
2023-01-19T00:03:26.531Z,98949.91
2023-01-19T00:04:31.337Z,98932.78
2023-01-19T00:05:34.105Z,98937.84
2023-01-19T00:06:36.144Z,98942.13
2023-01-19T00:07:38.211Z,98892.81
2023-01-19T00:08:40.225Z,98927.59
2023-01-19T00:09:42.017Z,98935.19
2023-01-19T00:10:46.051Z,98937.72
2023-01-19T00:11:47.769Z,98945.41
2023-01-19T00:12:49.418Z,98941.97
2023-01-19T00:13:51.855Z,98938.56
2023-01-19T00:14:53.636Z,98941.97
2023-01-19T00:15:55.430Z,98938.56
2023-01-19T00:16:57.457Z,98934.28
2023-01-19T00:17:59.061Z,98933.41
2023-01-19T00:19:00.674Z,98939.38
2023-01-19T00:20:02.425Z,98942.81
2023-01-19T00:21:04.319Z,98944.44
2023-01-19T00:22:06.324Z,98940.16
2023-01-19T00:23:09.540Z,98939.31
2023-01-19T00:24:11.748Z,98937.56
2023-01-19T00:25:13.595Z,98937.47
2023-01-19T00:26:19.161Z,98937.47
2023-01-19T00:27:20.952Z,98939.19
2023-01-19T00:28:22.692Z,98938.31
2023-01-19T00:29:24.675Z,98922.19
2023-01-19T00:30:26.402Z,98946.84
2023-01-19T00:31:34.073Z,98932.31
2023-01-19T00:32:35.826Z,98931.47
2023-01-19T00:33:38.143Z,98942.56
2023-01-19T00:34:49.412Z,98941.69
2023-01-19T00:35:53.413Z,98939.97
2023-01-19T00:36:55.210Z,98968.16
2023-01-19T00:37:58.377Z,98939.97
2023-01-19T00:39:00.337Z,98945.06
2023-01-19T00:40:02.002Z,98932.22
2023-01-19T00:41:03.652Z,98938.16
2023-01-19T00:42:24.169Z,98938.16
2023-01-19T00:43:25.959Z,98942.38
2023-01-19T00:44:27.914Z,98970.59
2023-01-19T00:45:29.804Z,98942.34
2023-01-19T00:46:31.578Z,98954.28
2023-01-19T00:47:33.470Z,98937.13
2023-01-19T00:48:35.410Z,98943.97
2023-01-19T00:49:37.160Z,98943.91
2023-01-19T00:50:38.918Z,98950.75
2023-01-19T00:51:40.641Z,98944.72
2023-01-19T00:52:44.165Z,98963.56
2023-01-19T00:53:45.857Z,98944.72
2023-01-19T00:54:47.627Z,98967.00
2023-01-19T00:55:49.436Z,98949.88
2023-01-19T00:56:51.161Z,98950.72
2023-01-19T00:57:52.929Z,98952.41
2023-01-19T00:58:54.607Z,98966.09
2023-01-19T00:59:56.501Z,98949.81
2023-01-19T01:01:03.695Z,98954.13
2023-01-19T01:02:05.976Z,98954.13
2023-01-19T01:03:07.948Z,98956.69
2023-01-19T01:04:12.213Z,98954.13
2023-01-19T01:05:14.251Z,98916.72
2023-01-19T01:06:16.003Z,98952.41
2023-01-19T01:07:17.732Z,98958.28
2023-01-19T01:08:19.393Z,98960.00
2023-01-19T01:09:21.231Z,98957.50
2023-01-19T01:10:26.286Z,98955.69
2023-01-19T01:11:28.296Z,98932.88
2023-01-19T01:12:29.958Z,98965.16
2023-01-19T01:13:32.003Z,98961.72
2023-01-19T01:14:34.398Z,98914.16
2023-01-19T01:15:36.115Z,98912.47
2023-01-19T01:16:38.001Z,98968.53
2023-01-19T01:17:47.212Z,98964.28
2023-01-19T01:18:49.192Z,98965.97
2023-01-19T01:19:52.019Z,98963.41
2023-01-19T01:21:01.251Z,98969.34
2023-01-19T01:22:03.191Z,98971.97
2023-01-19T01:23:05.354Z,98969.31
2023-01-19T01:24:07.865Z,98969.31
2023-01-19T01:25:09.686Z,98969.25
2023-01-19T01:26:11.540Z,98979.47
2023-01-19T01:27:13.391Z,98966.63
2023-01-19T01:28:15.220Z,98976.88
2023-01-19T01:29:17.516Z,98970.91
2023-01-19T01:30:19.920Z,98978.56
2023-01-19T01:31:21.718Z,98976.03
2023-01-19T01:32:25.998Z,98976.03
2023-01-19T01:33:41.189Z,98923.31
2023-01-19T01:34:43.889Z,98968.34
2023-01-19T01:35:45.666Z,98970.88
2023-01-19T01:36:47.407Z,98972.63
2023-01-19T01:37:49.156Z,98972.56
2023-01-19T01:38:51.286Z,98953.03
2023-01-19T01:39:53.080Z,98967.44
2023-01-19T01:40:54.843Z,98947.22
2023-01-19T01:41:56.430Z,98970.00
2023-01-19T01:42:59.801Z,98968.25
2023-01-19T01:44:03.043Z,98967.44
2023-01-19T01:45:15.452Z,98969.09
2023-01-19T01:46:18.295Z,98962.28
2023-01-19T01:47:26.643Z,98967.38
2023-01-19T01:48:30.936Z,98963.16
2023-01-19T01:49:32.665Z,98966.56
2023-01-19T01:50:37.661Z,98966.53
2023-01-19T01:51:42.049Z,98974.25
2023-01-19T01:53:06.458Z,98983.69
2023-01-19T01:54:26.971Z,98965.72
2023-01-19T01:55:31.152Z,98966.53
2023-01-19T01:56:37.655Z,98957.16
2023-01-19T01:57:43.929Z,98916.41
2023-01-19T01:58:46.610Z,98964.81
2023-01-19T01:59:49.716Z,98965.66
2023-01-19T02:01:10.102Z,98969.94
2023-01-19T02:02:36.204Z,98959.56
2023-01-19T02:03:38.223Z,98966.47
2023-01-19T02:04:44.376Z,98977.63
2023-01-19T02:05:46.415Z,98964.78
2023-01-19T02:07:07.382Z,98963.97
2023-01-19T02:08:36.411Z,98913.81
2023-01-19T02:09:56.978Z,98968.25
2023-01-19T02:11:18.452Z,98963.16
2023-01-19T02:12:41.256Z,98965.69
2023-01-19T02:13:45.130Z,98968.25
2023-01-19T02:14:47.267Z,98972.53
2023-01-19T02:15:58.501Z,98973.41
2023-01-19T02:17:00.257Z,98975.97
2023-01-19T02:18:02.155Z,98971.69
2023-01-19T02:19:07.294Z,98973.38
2023-01-19T02:20:10.748Z,98960.66
2023-01-19T02:21:20.326Z,98977.63
2023-01-19T02:22:47.225Z,98973.34
2023-01-19T02:23:52.625Z,98993.91
2023-01-19T02:24:54.635Z,98981.88
2023-01-19T02:25:56.395Z,98975.06
2023-01-19T02:26:59.259Z,98975.94
2023-01-19T02:28:01.488Z,98975.06
2023-01-19T02:29:10.040Z,98971.72
2023-01-19T02:30:13.542Z,98976.88
2023-01-19T02:31:15.434Z,98964.06
2023-01-19T02:32:17.135Z,98967.47
2023-01-19T02:33:18.751Z,98966.59
2023-01-19T02:34:21.540Z,98965.66
2023-01-19T02:35:23.683Z,98976.81
2023-01-19T02:36:31.436Z,98970.78
2023-01-19T02:37:37.673Z,98975.94
2023-01-19T02:38:41.657Z,98997.38
2023-01-19T02:39:45.405Z,98924.97
2023-01-19T02:40:49.100Z,98972.56
2023-01-19T02:41:59.231Z,98969.16
2023-01-19T02:43:03.091Z,98971.72
2023-01-19T02:44:08.246Z,98971.78
2023-01-19T02:45:12.760Z,98973.44
2023-01-19T02:46:16.101Z,98974.25
2023-01-19T02:47:18.428Z,98918.97
2023-01-19T02:48:21.161Z,98964.75
2023-01-19T02:49:24.904Z,98968.16
2023-01-19T02:50:45.983Z,98970.72
2023-01-19T02:51:47.957Z,98960.50
2023-01-19T02:52:52.733Z,98974.19
2023-01-19T02:54:22.466Z,98971.66
2023-01-19T02:55:28.530Z,98964.78
2023-01-19T02:56:39.693Z,98969.03
2023-01-19T02:57:57.393Z,98967.38
2023-01-19T02:59:23.213Z,98973.34
2023-01-19T03:00:28.229Z,98987.09
2023-01-19T03:02:04.731Z,98969.09
2023-01-19T03:03:30.925Z,98969.97
2023-01-19T03:05:08.356Z,98968.19
2023-01-19T03:06:18.978Z,98918.78
2023-01-19T03:07:54.659Z,98968.09
2023-01-19T03:09:04.428Z,98980.94
2023-01-19T03:10:23.228Z,98962.97
2023-01-19T03:11:31.561Z,98961.31
2023-01-19T03:12:52.678Z,98958.72
2023-01-19T03:14:01.756Z,98963.03
2023-01-19T03:15:16.088Z,98959.66
2023-01-19T03:16:27.415Z,98919.75
2023-01-19T03:17:32.001Z,98960.53
2023-01-19T03:18:37.331Z,98960.50
2023-01-19T03:19:46.642Z,98962.16
2023-01-19T03:20:51.563Z,98961.28
2023-01-19T03:21:58.415Z,98964.75
2023-01-19T03:23:05.334Z,98964.78
2023-01-19T03:24:10.574Z,98974.22
2023-01-19T03:25:15.219Z,98961.44
2023-01-19T03:26:21.213Z,98967.44
2023-01-19T03:27:29.746Z,98962.34
2023-01-19T03:28:34.172Z,98964.94
2023-01-19T03:29:39.129Z,98966.72
2023-01-19T03:30:46.718Z,98972.69
2023-01-19T03:31:51.049Z,98968.34
2023-01-19T03:33:03.509Z,98970.13
2023-01-19T03:34:09.822Z,98968.44
2023-01-19T03:35:16.182Z,98967.50
2023-01-19T03:36:27.407Z,98970.97
2023-01-19T03:37:32.248Z,98982.13
2023-01-19T03:38:37.176Z,98978.69
2023-01-19T03:39:38.897Z,98976.16
2023-01-19T03:40:41.925Z,98970.22
2023-01-19T03:41:47.273Z,98973.63
2023-01-19T03:42:50.503Z,98969.34
2023-01-19T03:43:55.323Z,98969.34
2023-01-19T03:45:01.293Z,98972.78
2023-01-19T03:46:05.109Z,98975.31
2023-01-19T03:47:08.916Z,98973.56
2023-01-19T03:48:10.756Z,98980.38
2023-01-19T03:49:12.717Z,98970.97
2023-01-19T03:50:24.881Z,98962.50
2023-01-19T03:51:27.236Z,98976.06
2023-01-19T03:52:33.753Z,98972.66
2023-01-19T03:53:36.047Z,98974.44
2023-01-19T03:54:37.872Z,98985.56
2023-01-19T03:55:43.338Z,98980.44
2023-01-19T03:56:45.123Z,98979.59
2023-01-19T03:57:46.921Z,98981.28
2023-01-19T03:58:48.919Z,98995.03
2023-01-19T03:59:50.679Z,98981.31
2023-01-19T04:00:52.684Z,98983.91
2023-01-19T04:01:54.765Z,98983.06
2023-01-19T04:02:57.788Z,98982.28
2023-01-19T04:03:59.563Z,98984.88
2023-01-19T04:05:01.313Z,98983.16
2023-01-19T04:06:03.445Z,98986.56
2023-01-19T04:07:05.310Z,98988.25
2023-01-19T04:08:07.687Z,98940.72
2023-01-19T04:09:09.623Z,98937.25
2023-01-19T04:10:16.088Z,98983.22
2023-01-19T04:11:18.450Z,98990.06
2023-01-19T04:12:20.079Z,98981.59
2023-01-19T04:13:21.746Z,98987.66
2023-01-19T04:14:23.481Z,98982.56
2023-01-19T04:15:26.081Z,98982.63
2023-01-19T04:16:29.073Z,99004.00
2023-01-19T04:17:31.814Z,98984.38
2023-01-19T04:18:34.875Z,98985.28
2023-01-19T04:19:37.299Z,98975.94
2023-01-19T04:20:39.023Z,98983.63
2023-01-19T04:21:41.002Z,98987.03
2023-01-19T04:22:43.057Z,98997.31
2023-01-19T04:23:46.098Z,98993.06
2023-01-19T04:24:47.905Z,98987.97
2023-01-19T04:25:49.699Z,98987.16
2023-01-19T04:26:53.662Z,98991.44
2023-01-19T04:28:00.295Z,98982.97
2023-01-19T04:29:02.179Z,98971.16
2023-01-19T04:30:05.281Z,98997.53
2023-01-19T04:31:07.391Z,98994.16
2023-01-19T04:32:09.523Z,98994.19
2023-01-19T04:33:11.211Z,98991.66
2023-01-19T04:34:12.902Z,98999.31
2023-01-19T04:35:15.672Z,98996.78
2023-01-19T04:36:17.650Z,99007.09
2023-01-19T04:37:19.270Z,99002.78
2023-01-19T04:38:22.039Z,99000.19
2023-01-19T04:39:23.967Z,99004.41
2023-01-19T04:40:25.832Z,99006.16
2023-01-19T04:41:28.728Z,98989.13
2023-01-19T04:42:32.482Z,99008.72
2023-01-19T04:43:34.252Z,99002.75
2023-01-19T04:44:35.978Z,98998.47
2023-01-19T04:45:37.984Z,99000.22
2023-01-19T04:46:39.825Z,99003.63
2023-01-19T04:47:42.765Z,98958.59
2023-01-19T04:48:44.720Z,98993.47
2023-01-19T04:49:46.369Z,98997.75
2023-01-19T04:50:48.353Z,98995.22
2023-01-19T04:51:53.860Z,98980.03
2023-01-19T04:52:55.565Z,98988.44
2023-01-19T04:53:57.867Z,99002.09
2023-01-19T04:54:59.935Z,98998.66
2023-01-19T04:56:01.657Z,99008.06
2023-01-19T04:57:03.430Z,99005.56
2023-01-19T04:58:05.484Z,99003.91
2023-01-19T04:59:07.298Z,98990.28
2023-01-19T05:00:10.154Z,98992.03
2023-01-19T05:01:12.254Z,99005.69
2023-01-19T05:02:14.175Z,98974.31
2023-01-19T05:03:16.007Z,99006.56
2023-01-19T05:04:17.766Z,99006.59
2023-01-19T05:05:19.713Z,99000.63
2023-01-19T05:06:21.721Z,99012.63
2023-01-19T05:07:23.857Z,99003.22
2023-01-19T05:08:25.681Z,99004.94
2023-01-19T05:09:27.724Z,99028.91
2023-01-19T05:10:29.500Z,99015.22
2023-01-19T05:11:31.129Z,99010.16
2023-01-19T05:12:33.681Z,99015.28
2023-01-19T05:13:35.529Z,99010.19
2023-01-19T05:14:37.810Z,99009.34
2023-01-19T05:15:39.488Z,99017.03
2023-01-19T05:16:41.332Z,99012.81
2023-01-19T05:17:43.008Z,99023.06
2023-01-19T05:18:44.707Z,99010.28
2023-01-19T05:19:47.821Z,99050.38
2023-01-19T05:20:49.736Z,99039.28
2023-01-19T05:21:52.069Z,99027.34
2023-01-19T05:22:54.128Z,99023.88
2023-01-19T05:23:55.835Z,99027.28
2023-01-19T05:24:57.543Z,99021.31
2023-01-19T05:26:01.951Z,99020.44
2023-01-19T05:27:04.033Z,99022.97
2023-01-19T05:28:05.841Z,99023.78
2023-01-19T05:29:08.438Z,99018.63
2023-01-19T05:30:12.972Z,99030.53
2023-01-19T05:31:14.872Z,98981.13
2023-01-19T05:32:16.840Z,99028.72
2023-01-19T05:33:18.534Z,99028.69
2023-01-19T05:34:20.386Z,98987.81
2023-01-19T05:35:31.289Z,98984.38
2023-01-19T05:36:37.252Z,99037.97
2023-01-19T05:37:39.806Z,99030.22
2023-01-19T05:38:41.505Z,98979.13
2023-01-19T05:39:43.470Z,99030.16
2023-01-19T05:40:45.429Z,99031.78
2023-01-19T05:41:47.862Z,99030.06
2023-01-19T05:42:49.712Z,99039.44
2023-01-19T05:43:51.465Z,99030.00
2023-01-19T05:44:53.287Z,99035.94
2023-01-19T05:45:55.146Z,99030.78
2023-01-19T05:46:57.215Z,99032.44
2023-01-19T05:47:59.124Z,99053.84
2023-01-19T05:49:04.285Z,99035.84
2023-01-19T05:50:06.816Z,99006.03
2023-01-19T05:51:08.629Z,99032.41
2023-01-19T05:52:10.296Z,99027.22
2023-01-19T05:53:12.257Z,99026.34
2023-01-19T05:54:17.592Z,99030.63
2023-01-19T05:55:20.356Z,99030.63
2023-01-19T05:56:22.045Z,99024.66
2023-01-19T05:57:23.951Z,99031.44
2023-01-19T05:58:25.728Z,99033.16
2023-01-19T05:59:27.580Z,99033.16
2023-01-19T06:00:29.318Z,99035.69
2023-01-19T06:01:31.267Z,99034.00
2023-01-19T06:02:33.126Z,99034.00
2023-01-19T06:03:36.069Z,99037.38
2023-01-19T06:04:37.824Z,99047.63
2023-01-19T06:05:39.595Z,99029.66
2023-01-19T06:06:41.346Z,99035.66
2023-01-19T06:07:43.120Z,99031.41
2023-01-19T06:08:46.041Z,99038.22
2023-01-19T06:09:47.842Z,99003.38
2023-01-19T06:10:49.694Z,99034.69
2023-01-19T06:11:54.324Z,99030.47
2023-01-19T06:12:56.019Z,99035.63
2023-01-19T06:13:57.780Z,99035.63
2023-01-19T06:14:59.507Z,99041.56
2023-01-19T06:16:02.732Z,99034.75
2023-01-19T06:17:06.217Z,99027.88
2023-01-19T06:18:08.316Z,99034.72
2023-01-19T06:19:10.118Z,99053.56
2023-01-19T06:20:14.088Z,99019.41
2023-01-19T06:21:15.939Z,99038.16
2023-01-19T06:22:17.644Z,99062.09
2023-01-19T06:23:21.046Z,99045.84
2023-01-19T06:24:23.259Z,99034.72
2023-01-19T06:25:26.134Z,99062.13
2023-01-19T06:26:27.994Z,99042.44
2023-01-19T06:27:29.924Z,99047.53
2023-01-19T06:28:31.872Z,99050.97
2023-01-19T06:29:33.664Z,99047.50
2023-01-19T06:30:35.537Z,99050.94
2023-01-19T06:31:37.454Z,99053.50
2023-01-19T06:32:39.134Z,99051.72
2023-01-19T06:33:40.808Z,99052.56
2023-01-19T06:34:43.800Z,99040.63
2023-01-19T06:35:50.934Z,99055.84
2023-01-19T06:36:52.671Z,99052.38
2023-01-19T06:37:54.657Z,99056.63
2023-01-19T06:38:56.608Z,99080.66
2023-01-19T06:39:58.226Z,99058.41
2023-01-19T06:41:00.133Z,99062.69
2023-01-19T06:42:02.165Z,99061.81
2023-01-19T06:43:04.082Z,99056.63
2023-01-19T06:44:06.069Z,99056.66
2023-01-19T06:45:10.134Z,99062.59
2023-01-19T06:46:12.177Z,99061.75
2023-01-19T06:47:16.375Z,99059.13
2023-01-19T06:48:19.157Z,99069.34
2023-01-19T06:49:21.261Z,99065.94
2023-01-19T06:50:23.057Z,99060.78
2023-01-19T06:51:25.578Z,99071.94
2023-01-19T06:52:28.550Z,99018.22
2023-01-19T06:53:30.364Z,99064.97
2023-01-19T06:54:32.024Z,99067.50
2023-01-19T06:55:35.716Z,99062.34
2023-01-19T06:56:38.205Z,99064.03
2023-01-19T06:57:40.641Z,99065.75
2023-01-19T06:58:42.762Z,99063.16
2023-01-19T06:59:44.367Z,99068.28
2023-01-19T07:00:46.300Z,99066.56
2023-01-19T07:01:49.122Z,99067.41
2023-01-19T07:02:51.456Z,99074.28
2023-01-19T07:03:53.519Z,99097.41
2023-01-19T07:04:56.482Z,99057.16
2023-01-19T07:06:00.388Z,99069.97
2023-01-19T07:07:02.151Z,99069.00
2023-01-19T07:08:04.654Z,99064.81
2023-01-19T07:09:10.302Z,99072.44
2023-01-19T07:10:15.703Z,99069.03
2023-01-19T07:11:26.057Z,99069.06
2023-01-19T07:12:32.721Z,99066.44
2023-01-19T07:13:35.685Z,99075.88
2023-01-19T07:14:37.592Z,99066.44
2023-01-19T07:15:39.308Z,99069.84
2023-01-19T07:16:42.373Z,99070.72
2023-01-19T07:17:44.171Z,99069.00
2023-01-19T07:18:49.504Z,99068.09
2023-01-19T07:19:53.111Z,99072.38
2023-01-19T07:20:57.789Z,99070.69
2023-01-19T07:21:59.673Z,99074.03
2023-01-19T07:23:03.351Z,99071.44
2023-01-19T07:24:05.535Z,99080.81
2023-01-19T07:25:07.912Z,99056.94
2023-01-19T07:26:10.419Z,99083.34
2023-01-19T07:27:12.290Z,99086.75
2023-01-19T07:28:15.870Z,99102.22
2023-01-19T07:29:17.637Z,99084.94
2023-01-19T07:30:19.485Z,99086.66
2023-01-19T07:31:21.335Z,99090.09
2023-01-19T07:32:23.036Z,99081.50
2023-01-19T07:33:27.563Z,99106.31
2023-01-19T07:34:29.701Z,99091.66
2023-01-19T07:35:31.978Z,99082.28
2023-01-19T07:36:33.875Z,99085.63
2023-01-19T07:37:36.096Z,99085.63
2023-01-19T07:38:37.851Z,99098.34
2023-01-19T07:39:39.501Z,99097.50
2023-01-19T07:40:41.636Z,99097.50
2023-01-19T07:41:43.367Z,99110.34
2023-01-19T07:42:49.314Z,99100.06
2023-01-19T07:43:51.522Z,99095.81
2023-01-19T07:44:53.794Z,99082.13
2023-01-19T07:46:00.677Z,99097.41
2023-01-19T07:47:02.750Z,99112.81
2023-01-19T07:48:05.077Z,99098.25
2023-01-19T07:49:07.037Z,99097.41
2023-01-19T07:50:09.581Z,99091.41
2023-01-19T07:51:19.055Z,99101.69
2023-01-19T07:52:21.367Z,99094.78
2023-01-19T07:53:23.129Z,99090.50
2023-01-19T07:54:25.013Z,99098.22
2023-01-19T07:55:26.832Z,99094.75
2023-01-19T07:56:32.760Z,99104.97
2023-01-19T07:57:37.094Z,99094.63
2023-01-19T07:58:39.551Z,99094.63
2023-01-19T07:59:41.162Z,99088.63
2023-01-19T08:00:43.512Z,99097.97
2023-01-19T08:01:45.584Z,99057.09
2023-01-19T08:02:51.913Z,99099.59
2023-01-19T08:03:54.054Z,99103.81
2023-01-19T08:04:56.210Z,99099.50
2023-01-19T08:06:00.136Z,99104.59
2023-01-19T08:07:02.361Z,99084.38
2023-01-19T08:08:05.728Z,99109.56
2023-01-19T08:09:07.865Z,99122.41
2023-01-19T08:10:12.998Z,99113.84
2023-01-19T08:11:15.393Z,99114.66
2023-01-19T08:12:18.301Z,99108.59
2023-01-19T08:13:20.180Z,99108.59
2023-01-19T08:14:22.281Z,99121.41
2023-01-19T08:15:24.773Z,99115.44
2023-01-19T08:16:27.916Z,99111.13
2023-01-19T08:17:30.296Z,99113.84
2023-01-19T08:18:32.167Z,99117.28
2023-01-19T08:19:34.095Z,99118.94
2023-01-19T08:20:37.625Z,99118.84
2023-01-19T08:21:39.385Z,99121.41
2023-01-19T08:22:41.120Z,99128.22
2023-01-19T08:23:43.227Z,99112.03
2023-01-19T08:24:45.097Z,99117.88
2023-01-19T08:25:46.973Z,99126.44
2023-01-19T08:26:49.713Z,99116.91
2023-01-19T08:27:54.680Z,99115.09
2023-01-19T08:28:59.283Z,99121.00
2023-01-19T08:30:01.161Z,99115.78
2023-01-19T08:31:18.353Z,99122.56
2023-01-19T08:32:21.381Z,99119.97
2023-01-19T08:33:24.293Z,99120.59
2023-01-19T08:34:26.082Z,99124.88
2023-01-19T08:35:28.418Z,99083.19
2023-01-19T08:36:30.444Z,99122.16
2023-01-19T08:37:34.201Z,99120.34
2023-01-19T08:38:39.707Z,99124.59
2023-01-19T08:39:41.398Z,99128.94
2023-01-19T08:40:43.915Z,99133.16
2023-01-19T08:41:45.996Z,99151.13
2023-01-19T08:42:48.041Z,99134.75
2023-01-19T08:43:50.303Z,99110.09
2023-01-19T08:44:58.168Z,99132.06
2023-01-19T08:46:00.356Z,99147.59
2023-01-19T08:47:02.801Z,99144.19
2023-01-19T08:48:06.416Z,99106.88
2023-01-19T08:49:08.793Z,99140.63
2023-01-19T08:50:11.826Z,99150.91
2023-01-19T08:51:15.526Z,99149.13
2023-01-19T08:52:17.259Z,99150.91
2023-01-19T08:53:21.149Z,99149.13
2023-01-19T08:54:24.283Z,99147.41
2023-01-19T08:55:26.961Z,99148.31
2023-01-19T08:56:28.601Z,99147.47
2023-01-19T08:57:30.322Z,99147.41
2023-01-19T08:58:32.097Z,99147.47
2023-01-19T08:59:33.722Z,99155.28
2023-01-19T09:00:40.415Z,99145.84
2023-01-19T09:01:42.379Z,99142.25
2023-01-19T09:02:44.451Z,99111.69
2023-01-19T09:03:47.032Z,99146.56
2023-01-19T09:04:49.166Z,99149.94
2023-01-19T09:05:51.463Z,99144.78
2023-01-19T09:06:53.304Z,99102.41
2023-01-19T09:07:55.114Z,99153.38
2023-01-19T09:08:57.679Z,99132.97
2023-01-19T09:09:59.602Z,99155.94
2023-01-19T09:11:02.020Z,99157.50
2023-01-19T09:12:04.329Z,99152.34
2023-01-19T09:13:08.549Z,99148.91
2023-01-19T09:14:10.397Z,99153.22
2023-01-19T09:15:14.143Z,99160.97
2023-01-19T09:16:16.003Z,99148.09
2023-01-19T09:17:18.262Z,99163.47
2023-01-19T09:18:21.859Z,99152.34
2023-01-19T09:19:23.475Z,99165.25
2023-01-19T09:20:25.785Z,99156.69
2023-01-19T09:21:28.464Z,99156.69
2023-01-19T09:22:30.580Z,99155.75
2023-01-19T09:23:32.500Z,99159.16
2023-01-19T09:24:35.104Z,99151.44
2023-01-19T09:25:38.443Z,99160.84
2023-01-19T09:26:40.777Z,99123.41
2023-01-19T09:27:42.440Z,99152.16
2023-01-19T09:28:44.261Z,99150.28
2023-01-19T09:29:52.421Z,99158.78
2023-01-19T09:30:54.730Z,99152.72
2023-01-19T09:31:57.657Z,99148.34
2023-01-19T09:33:06.430Z,99147.38
2023-01-19T09:34:08.162Z,99149.06
2023-01-19T09:35:10.918Z,99147.16
2023-01-19T09:36:12.626Z,99147.06
2023-01-19T09:37:16.352Z,99144.56
2023-01-19T09:38:19.486Z,99150.66
2023-01-19T09:39:21.224Z,99152.41
2023-01-19T09:40:22.988Z,99152.38
2023-01-19T09:41:26.623Z,99137.69
2023-01-19T09:42:37.075Z,99155.78
2023-01-19T09:44:04.230Z,99148.97
2023-01-19T09:45:14.180Z,99100.53
2023-01-19T09:46:40.198Z,99158.44
2023-01-19T09:47:42.550Z,99153.22
2023-01-19T09:48:52.139Z,99156.56
2023-01-19T09:50:26.788Z,99151.31
2023-01-19T09:51:36.779Z,99175.13
2023-01-19T09:52:44.092Z,99144.78
2023-01-19T09:53:51.234Z,99149.94
2023-01-19T09:54:58.115Z,99151.72
2023-01-19T09:56:00.474Z,99144.03
2023-01-19T09:57:02.508Z,99156.06
2023-01-19T09:58:09.704Z,99149.25
2023-01-19T09:59:23.249Z,99162.97
2023-01-19T10:00:28.259Z,99152.63
2023-01-19T10:01:36.300Z,99154.03
2023-01-19T10:02:44.440Z,99146.13
2023-01-19T10:03:46.186Z,99152.13
2023-01-19T10:05:01.909Z,99156.31
2023-01-19T10:06:09.993Z,99155.38
2023-01-19T10:07:48.635Z,99137.50
2023-01-19T10:09:04.194Z,99154.50
2023-01-19T10:10:26.272Z,99153.84
2023-01-19T10:11:52.147Z,99154.53
2023-01-19T10:13:19.332Z,99106.97
2023-01-19T10:14:43.052Z,99142.44
2023-01-19T10:15:44.783Z,99150.94
2023-01-19T10:17:23.251Z,99147.66
2023-01-19T10:18:43.400Z,99106.22
2023-01-19T10:19:51.190Z,99154.53
2023-01-19T10:21:01.711Z,99152.75
2023-01-19T10:22:20.280Z,99146.88
2023-01-19T10:23:49.703Z,99145.88
2023-01-19T10:25:02.293Z,99142.28
2023-01-19T10:26:20.645Z,99137.09
2023-01-19T10:27:32.250Z,99149.16
2023-01-19T10:28:36.636Z,99149.16
2023-01-19T10:29:38.643Z,99139.06
2023-01-19T10:30:45.054Z,99155.34
2023-01-19T10:31:48.853Z,99141.72
2023-01-19T10:32:51.847Z,99144.94
2023-01-19T10:33:54.823Z,99147.69
2023-01-19T10:34:59.840Z,99151.19
2023-01-19T10:36:25.938Z,99150.06
2023-01-19T10:37:28.709Z,99138.78
2023-01-19T10:38:33.178Z,99147.31
2023-01-19T10:39:38.607Z,99153.09
2023-01-19T10:40:52.037Z,99152.06
2023-01-19T10:41:55.249Z,99152.97
2023-01-19T10:42:59.304Z,99144.88
2023-01-19T10:44:03.753Z,99150.16
2023-01-19T10:45:25.995Z,99152.16
2023-01-19T10:46:46.055Z,99123.25
2023-01-19T10:47:49.504Z,99131.59
2023-01-19T10:48:53.379Z,99147.50
2023-01-19T10:49:55.613Z,99156.75
2023-01-19T10:51:07.285Z,99148.22
2023-01-19T10:52:33.784Z,99144.00
2023-01-19T10:53:36.753Z,99161.13
2023-01-19T10:54:44.088Z,99165.84
2023-01-19T10:55:46.252Z,99162.44
2023-01-19T10:56:57.990Z,99136.47
2023-01-19T10:58:01.416Z,99167.84
2023-01-19T10:59:07.423Z,99132.94
2023-01-19T11:00:40.403Z,99166.97
2023-01-19T11:01:42.999Z,99159.38
2023-01-19T11:02:52.335Z,99149.16
2023-01-19T11:03:57.797Z,99164.47
2023-01-19T11:05:22.168Z,99165.13
2023-01-19T11:06:31.308Z,99166.81
2023-01-19T11:07:34.121Z,99168.25
2023-01-19T11:08:36.204Z,99165.88
2023-01-19T11:09:38.063Z,99163.34
2023-01-19T11:10:41.518Z,99167.53
2023-01-19T11:11:52.287Z,99132.69
2023-01-19T11:13:12.555Z,99168.59
2023-01-19T11:14:19.411Z,99166.09
2023-01-19T11:15:29.161Z,99174.63
2023-01-19T11:16:35.808Z,99166.81
2023-01-19T11:17:42.941Z,99146.59
2023-01-19T11:18:46.943Z,99171.84
2023-01-19T11:20:24.775Z,99161.03
2023-01-19T11:21:29.738Z,99172.06
2023-01-19T11:22:34.544Z,99151.00
2023-01-19T11:23:59.088Z,99188.50
2023-01-19T11:25:02.888Z,99145.06
2023-01-19T11:26:06.198Z,99168.91
2023-01-19T11:27:09.343Z,99142.53
2023-01-19T11:28:45.045Z,99169.94
2023-01-19T11:30:14.720Z,99169.00
2023-01-19T11:31:32.094Z,99162.13
2023-01-19T11:32:37.142Z,99147.69
2023-01-19T11:33:50.706Z,99167.19
2023-01-19T11:34:53.221Z,99162.03
2023-01-19T11:36:03.865Z,99150.00
2023-01-19T11:37:33.404Z,99186.78
2023-01-19T11:38:43.598Z,99148.44
2023-01-19T11:39:57.623Z,99173.28
2023-01-19T11:41:04.317Z,99167.25
2023-01-19T11:42:07.812Z,99134.31
2023-01-19T11:43:13.982Z,99130.25
2023-01-19T11:44:28.596Z,99146.31
2023-01-19T11:45:33.101Z,99172.78
2023-01-19T11:46:41.213Z,99145.53
2023-01-19T11:47:57.697Z,99139.47
2023-01-19T11:49:03.677Z,99168.53
2023-01-19T11:50:28.956Z,99157.69
2023-01-19T11:51:37.445Z,99180.19
2023-01-19T11:52:48.727Z,99142.63
2023-01-19T11:53:53.813Z,99185.19
2023-01-19T11:55:18.742Z,99170.66
2023-01-19T11:56:26.601Z,99152.19
2023-01-19T11:57:28.385Z,99129.00
2023-01-19T11:58:33.416Z,99152.53
2023-01-19T11:59:36.186Z,99141.13
2023-01-19T12:00:45.607Z,99165.19
2023-01-19T12:01:55.520Z,99152.09
2023-01-19T12:03:21.958Z,99165.72
2023-01-19T12:04:36.424Z,99134.16
2023-01-19T12:05:45.599Z,99133.16
2023-01-19T12:06:53.222Z,99157.84
2023-01-19T12:07:56.020Z,99171.00
2023-01-19T12:09:11.474Z,99171.28
2023-01-19T12:10:27.214Z,99169.19
2023-01-19T12:11:37.857Z,99122.47
2023-01-19T12:12:40.885Z,99118.53
2023-01-19T12:13:44.369Z,99154.19
2023-01-19T12:15:24.007Z,99166.94
2023-01-19T12:16:33.314Z,99165.28
2023-01-19T12:17:52.800Z,99148.88
2023-01-19T12:19:07.833Z,99154.09
2023-01-19T12:20:28.514Z,99164.38
2023-01-19T12:21:30.293Z,99149.13
2023-01-19T12:22:38.927Z,99145.06
2023-01-19T12:23:56.161Z,99153.72
2023-01-19T12:25:14.022Z,99135.25
2023-01-19T12:26:16.073Z,99162.38
2023-01-19T12:27:39.168Z,99164.94
2023-01-19T12:28:44.699Z,99142.09
2023-01-19T12:29:47.207Z,99149.66
2023-01-19T12:30:54.545Z,99166.66
2023-01-19T12:32:18.434Z,99163.06
2023-01-19T12:33:37.304Z,99163.34
2023-01-19T12:34:48.269Z,99081.72
2023-01-19T12:35:58.693Z,99146.16
2023-01-19T12:37:06.182Z,99095.91
2023-01-19T12:38:38.132Z,99154.38
2023-01-19T12:39:51.041Z,99151.03
2023-01-19T12:41:16.395Z,99158.38
2023-01-19T12:42:21.355Z,99112.59
2023-01-19T12:43:23.869Z,99161.03
2023-01-19T12:44:30.528Z,99065.91
2023-01-19T12:45:35.070Z,99114.41
2023-01-19T12:46:50.602Z,99112.03
2023-01-19T12:47:56.447Z,99146.25
2023-01-19T12:49:24.648Z,99157.97
2023-01-19T12:50:29.280Z,99134.06
2023-01-19T12:51:31.644Z,99157.09